Time;durP1;ratioP1;P1;durP2;ratioP2;P2;SDS_P1;SDS_P2;PMS_P1;PMS_P2;Temp;Humidity;BMP_temperature;BMP_pressure;BME280_temperature;BME280_humidity;BME280_pressure;Samples;Min_cycle;Max_cycle;Signal;HPM_P1;HPM_P2
2024/01/29 00:02:07;;;;;;;0.20;0.20;;;;;;;;;;5054167;28;20049;-87
2024/01/29 00:04:33;;;;;;;0.10;0.10;;;;;;;;;;5021325;28;20092;-87
2024/01/29 00:07:00;;;;;;;0.15;0.15;;;;;;;;;;5021293;28;20120;-87
2024/01/29 00:09:26;;;;;;;0.20;0.20;;;;;;;;;;5037915;28;20404;-87
2024/01/29 00:11:52;;;;;;;0.10;0.10;;;;;;;;;;5037400;28;20045;-86
2024/01/29 00:14:18;;;;;;;0.60;0.60;;;;;;;;;;5021089;28;20045;-87
2024/01/29 00:16:44;;;;;;;0.10;0.10;;;;;;;;;;5021042;28;20045;-86
2024/01/29 00:19:10;;;;;;;0.10;0.10;;;;;;;;;;5037367;28;20040;-87
2024/01/29 00:21:36;;;;;;;0.10;0.10;;;;;;;;;;5020760;28;20076;-87
2024/01/29 00:24:02;;;;;;;0.10;0.10;;;;;;;;;;5020923;28;20604;-87
2024/01/29 00:26:28;;;;;;;0.10;0.10;;;;;;;;;;5020943;28;20036;-87
2024/01/29 00:28:55;;;;;;;0.10;0.10;;;;;;;;;;5037355;28;20045;-88
2024/01/29 00:31:23;;;;;;;0.20;0.20;;;;;;;;;;5020888;28;20041;-89
2024/01/29 00:33:50;;;;;;;0.20;0.20;;;;;;;;;;5021120;28;20045;-87
2024/01/29 00:36:16;;;;;;;0.17;0.17;;;;;;;;;;5020749;28;20041;-87
2024/01/29 00:38:42;;;;;;;0.10;0.10;;;;;;;;;;5020514;28;20047;-87
2024/01/29 00:41:08;;;;;;;0.10;0.10;;;;;;;;;;5020450;28;20052;-88
2024/01/29 00:43:34;;;;;;;0.20;0.20;;;;;;;;;;5037442;28;20044;-87
2024/01/29 00:46:00;;;;;;;0.10;0.10;;;;;;;;;;5021007;28;20045;-87
2024/01/29 00:48:27;;;;;;;0.10;0.10;;;;;;;;;;5020901;28;20041;-88
2024/01/29 00:50:53;;;;;;;0.10;0.10;;;;;;;;;;5020424;28;20045;-87
2024/01/29 00:53:19;;;;;;;0.13;0.13;;;;;;;;;;5020400;28;20037;-87
2024/01/29 00:55:48;;;;;;;0.10;0.10;;;;;;;;;;5020128;28;20072;-87
2024/01/29 00:58:14;;;;;;;0.15;0.15;;;;;;;;;;5020924;28;20040;-86
2024/01/29 01:00:41;;;;;;;0.10;0.10;;;;;;;;;;5020061;28;20092;-86
2024/01/29 01:03:08;;;;;;;0.10;0.10;;;;;;;;;;5020150;28;20377;-87
2024/01/29 01:05:34;;;;;;;0.20;0.20;;;;;;;;;;5020029;28;20083;-87
2024/01/29 01:08:01;;;;;;;0.10;0.10;;;;;;;;;;5036744;28;20510;-87
2024/01/29 01:10:27;;;;;;;0.10;0.10;;;;;;;;;;5019552;28;20037;-87
2024/01/29 01:12:53;;;;;;;0.20;0.20;;;;;;;;;;5020256;28;20464;-86
2024/01/29 01:15:19;;;;;;;0.25;0.25;;;;;;;;;;5020175;28;20416;-87
2024/01/29 01:17:46;;;;;;;0.30;0.30;;;;;;;;;;5019755;28;20090;-87
2024/01/29 01:20:12;;;;;;;0.20;0.20;;;;;;;;;;5019487;28;20147;-87
2024/01/29 01:22:38;;;;;;;0.20;0.20;;;;;;;;;;5035983;28;20079;-87
2024/01/29 01:25:05;;;;;;;0.20;0.20;;;;;;;;;;5036506;28;20036;-87
2024/01/29 01:27:31;;;;;;;0.10;0.10;;;;;;;;;;5019665;28;20037;-87
2024/01/29 01:29:57;;;;;;;0.10;0.10;;;;;;;;;;5036098;28;20072;-86
2024/01/29 01:32:23;;;;;;;0.10;0.10;;;;;;;;;;5035982;28;20052;-87
2024/01/29 01:34:49;;;;;;;0.10;0.10;;;;;;;;;;5019795;28;20083;-88
2024/01/29 01:37:15;;;;;;;0.10;0.10;;;;;;;;;;5019409;28;20048;-87
2024/01/29 01:39:41;;;;;;;0.10;0.10;;;;;;;;;;5035957;28;20045;-87
2024/01/29 01:42:08;;;;;;;0.10;0.10;;;;;;;;;;5019202;28;20040;-87
2024/01/29 01:44:34;;;;;;;0.10;0.10;;;;;;;;;;5019619;28;20052;-87
2024/01/29 01:47:00;;;;;;;0.10;0.10;;;;;;;;;;5035860;28;20041;-87
2024/01/29 01:49:26;;;;;;;0.10;0.10;;;;;;;;;;5035843;28;20086;-87
2024/01/29 01:51:52;;;;;;;0.10;0.10;;;;;;;;;;5018969;28;20052;-87
2024/01/29 01:54:18;;;;;;;0.10;0.10;;;;;;;;;;5019108;28;20090;-87
2024/01/29 01:56:45;;;;;;;0.17;0.17;;;;;;;;;;5019254;28;20049;-87
2024/01/29 01:59:11;;;;;;;0.10;0.10;;;;;;;;;;5019118;28;20094;-87
2024/01/29 02:01:38;;;;;;;0.10;0.10;;;;;;;;;;5018841;28;20156;-87
2024/01/29 02:04:04;;;;;;;0.20;0.20;;;;;;;;;;5018870;28;20041;-87
2024/01/29 02:06:30;;;;;;;0.10;0.10;;;;;;;;;;5035278;28;20037;-87
2024/01/29 02:08:56;;;;;;;0.10;0.10;;;;;;;;;;5018883;28;20044;-87
2024/01/29 02:11:23;;;;;;;0.10;0.10;;;;;;;;;;5035252;28;20128;-87
2024/01/29 02:13:50;;;;;;;0.10;0.10;;;;;;;;;;5019166;28;20103;-87
2024/01/29 02:16:16;;;;;;;0.20;0.20;;;;;;;;;;5018623;28;20040;-87
2024/01/29 02:18:42;;;;;;;0.10;0.10;;;;;;;;;;5018826;28;20045;-87
2024/01/29 02:21:08;;;;;;;0.10;0.10;;;;;;;;;;5018406;28;20045;-87
2024/01/29 02:23:34;;;;;;;0.10;0.10;;;;;;;;;;5051176;28;20041;-87
2024/01/29 02:26:00;;;;;;;0.13;0.13;;;;;;;;;;5035333;28;20365;-87
2024/01/29 02:28:27;;;;;;;0.20;0.20;;;;;;;;;;5035338;28;20047;-86
2024/01/29 02:30:53;;;;;;;0.10;0.10;;;;;;;;;;5034770;28;20124;-87
2024/01/29 02:33:19;;;;;;;0.35;0.35;;;;;;;;;;5018329;28;20036;-86
2024/01/29 02:35:49;;;;;;;0.20;0.20;;;;;;;;;;5035004;28;20394;-88
2024/01/29 02:38:15;;;;;;;0.10;0.10;;;;;;;;;;5018681;28;20029;-87
2024/01/29 02:40:41;;;;;;;0.10;0.10;;;;;;;;;;5034621;28;20037;-87
2024/01/29 02:43:07;;;;;;;0.10;0.10;;;;;;;;;;5034740;28;20040;-87
2024/01/29 02:45:33;;;;;;;0.10;0.10;;;;;;;;;;5018655;28;20136;-88
2024/01/29 02:48:00;;;;;;;0.10;0.10;;;;;;;;;;5018387;28;20396;-87
2024/01/29 02:50:26;;;;;;;0.82;0.82;;;;;;;;;;5018056;28;20100;-87
2024/01/29 02:52:52;;;;;;;0.10;0.10;;;;;;;;;;5018257;28;20603;-87
2024/01/29 02:55:18;;;;;;;0.13;0.13;;;;;;;;;;5018351;28;20434;-87
2024/01/29 02:57:44;;;;;;;0.10;0.10;;;;;;;;;;5018320;28;20449;-87
2024/01/29 03:00:11;;;;;;;0.10;0.10;;;;;;;;;;5017985;28;20392;-86
2024/01/29 03:02:39;;;;;;;0.10;0.10;;;;;;;;;;5018088;28;20053;-87
2024/01/29 03:05:07;;;;;;;0.10;0.10;;;;;;;;;;5034958;28;20480;-88
2024/01/29 03:07:33;;;;;;;0.10;0.10;;;;;;;;;;5018340;28;20041;-88
2024/01/29 03:09:59;;;;;;;0.10;0.10;;;;;;;;;;5034320;28;20037;-87
2024/01/29 03:12:25;;;;;;;0.10;0.10;;;;;;;;;;5017907;28;20048;-87
2024/01/29 03:14:51;;;;;;;0.10;0.10;;;;;;;;;;5035006;28;20084;-87
2024/01/29 03:17:17;;;;;;;0.10;0.10;;;;;;;;;;5017973;28;20048;-87
2024/01/29 03:19:43;;;;;;;0.10;0.10;;;;;;;;;;5018257;28;20040;-86
2024/01/29 03:22:09;;;;;;;0.10;0.10;;;;;;;;;;5017799;28;20060;-87
2024/01/29 03:24:35;;;;;;;0.15;0.15;;;;;;;;;;5017900;28;20092;-87
2024/01/29 03:27:01;;;;;;;0.10;0.10;;;;;;;;;;5018127;28;20363;-87
2024/01/29 03:29:28;;;;;;;0.10;0.10;;;;;;;;;;5017791;28;20508;-86
2024/01/29 03:31:54;;;;;;;0.10;0.10;;;;;;;;;;5034136;28;20135;-87
2024/01/29 03:34:20;;;;;;;0.10;0.10;;;;;;;;;;5019986;28;20101;-90
2024/01/29 03:36:46;;;;;;;0.10;0.10;;;;;;;;;;5038912;28;20516;-87
2024/01/29 03:39:12;;;;;;;0.10;0.10;;;;;;;;;;5021626;28;20136;-87
2024/01/29 03:41:39;;;;;;;0.10;0.10;;;;;;;;;;5021628;28;20048;-87
2024/01/29 03:44:05;;;;;;;0.10;0.10;;;;;;;;;;5021979;28;20037;-88
2024/01/29 03:46:31;;;;;;;0.10;0.10;;;;;;;;;;5021812;28;20099;-87
2024/01/29 03:48:57;;;;;;;0.10;0.10;;;;;;;;;;5038172;28;20104;-87
2024/01/29 03:51:23;;;;;;;0.15;0.15;;;;;;;;;;5037953;28;20067;-87
2024/01/29 03:53:49;;;;;;;0.10;0.10;;;;;;;;;;5038003;28;20150;-88
2024/01/29 03:56:15;;;;;;;0.10;0.10;;;;;;;;;;5021402;28;20044;-87
2024/01/29 03:58:42;;;;;;;0.10;0.10;;;;;;;;;;5038133;28;20049;-87
2024/01/29 04:01:08;;;;;;;0.10;0.10;;;;;;;;;;5021103;28;20110;-87
2024/01/29 04:03:34;;;;;;;0.10;0.10;;;;;;;;;;5037760;28;20052;-87
2024/01/29 04:06:00;;;;;;;0.10;0.10;;;;;;;;;;5021364;28;20047;-87
2024/01/29 04:08:26;;;;;;;0.20;0.20;;;;;;;;;;5037518;28;20036;-87
2024/01/29 04:10:53;;;;;;;0.10;0.10;;;;;;;;;;5021017;28;20045;-87
2024/01/29 04:13:19;;;;;;;0.10;0.10;;;;;;;;;;5021122;28;20361;-87
2024/01/29 04:15:45;;;;;;;0.10;0.10;;;;;;;;;;5020943;28;20047;-87
2024/01/29 04:18:11;;;;;;;0.10;0.10;;;;;;;;;;5021048;28;20073;-87
2024/01/29 04:20:37;;;;;;;0.10;0.10;;;;;;;;;;5020877;28;20041;-87
2024/01/29 04:23:03;;;;;;;0.15;0.15;;;;;;;;;;5037212;28;20471;-87
2024/01/29 04:25:29;;;;;;;0.10;0.10;;;;;;;;;;5037554;28;20048;-87
2024/01/29 04:27:55;;;;;;;0.10;0.10;;;;;;;;;;5020534;28;20102;-87
2024/01/29 04:30:21;;;;;;;0.10;0.10;;;;;;;;;;5036959;28;20040;-88
2024/01/29 04:32:47;;;;;;;0.10;0.10;;;;;;;;;;5020556;28;20044;-86
2024/01/29 04:35:13;;;;;;;0.10;0.10;;;;;;;;;;5037130;28;20048;-87
2024/01/29 04:37:40;;;;;;;0.10;0.10;;;;;;;;;;5020635;28;20041;-87
2024/01/29 04:40:07;;;;;;;0.10;0.10;;;;;;;;;;5020833;28;20067;-87
2024/01/29 04:42:33;;;;;;;0.10;0.10;;;;;;;;;;5020309;28;20045;-87
2024/01/29 04:44:59;;;;;;;0.10;0.10;;;;;;;;;;5019839;28;20041;-87
2024/01/29 04:47:26;;;;;;;0.10;0.10;;;;;;;;;;5020468;28;20059;-87
2024/01/29 04:49:52;;;;;;;0.10;0.10;;;;;;;;;;5020325;28;20106;-86
2024/01/29 04:52:18;;;;;;;0.10;0.10;;;;;;;;;;5020321;28;20148;-87
2024/01/29 04:54:44;;;;;;;0.20;0.20;;;;;;;;;;5020271;28;20522;-87
2024/01/29 04:57:10;;;;;;;0.10;0.10;;;;;;;;;;5036673;28;20048;-87
2024/01/29 04:59:36;;;;;;;0.10;0.10;;;;;;;;;;5022967;28;20139;-87
2024/01/29 05:02:02;;;;;;;0.10;0.10;;;;;;;;;;5039859;28;20049;-88
2024/01/29 05:04:29;;;;;;;0.30;0.13;;;;;;;;;;5040008;28;20039;-88
2024/01/29 05:06:55;;;;;;;0.30;0.30;;;;;;;;;;5023359;28;20037;-88
2024/01/29 05:09:21;;;;;;;0.10;0.10;;;;;;;;;;5056713;28;20059;-88
2024/01/29 05:11:47;;;;;;;0.17;0.17;;;;;;;;;;5022778;28;20123;-88
2024/01/29 05:14:13;;;;;;;0.10;0.10;;;;;;;;;;5039859;28;20504;-88
2024/01/29 05:16:39;;;;;;;0.10;0.10;;;;;;;;;;5056461;28;20036;-88
2024/01/29 05:19:05;;;;;;;0.10;0.10;;;;;;;;;;5023070;28;20085;-88
2024/01/29 05:21:32;;;;;;;0.20;0.20;;;;;;;;;;5022787;28;20080;-87
2024/01/29 05:24:01;;;;;;;0.10;0.10;;;;;;;;;;5023676;28;20097;-86
2024/01/29 05:26:27;;;;;;;0.10;0.10;;;;;;;;;;5022764;28;20044;-87
2024/01/29 05:28:53;;;;;;;0.10;0.10;;;;;;;;;;5022927;28;20040;-87
2024/01/29 05:31:19;;;;;;;0.10;0.10;;;;;;;;;;5022804;28;20124;-87
2024/01/29 05:33:45;;;;;;;0.10;0.10;;;;;;;;;;5039688;28;20044;-87
2024/01/29 05:36:13;;;;;;;0.10;0.10;;;;;;;;;;5022966;28;20128;-88
2024/01/29 05:38:39;;;;;;;0.10;0.10;;;;;;;;;;5022836;28;20044;-87
2024/01/29 05:41:05;;;;;;;0.10;0.10;;;;;;;;;;5038912;28;20040;-87
2024/01/29 05:43:31;;;;;;;0.10;0.10;;;;;;;;;;5022685;28;20072;-87
2024/01/29 05:45:58;;;;;;;0.10;0.10;;;;;;;;;;5055895;28;20048;-87
2024/01/29 05:48:24;;;;;;;0.10;0.10;;;;;;;;;;5022832;28;20067;-87
2024/01/29 05:50:50;;;;;;;0.10;0.10;;;;;;;;;;5039167;28;20076;-87
2024/01/29 05:53:20;;;;;;;0.20;0.20;;;;;;;;;;5022571;28;20072;-87
2024/01/29 05:55:46;;;;;;;0.10;0.10;;;;;;;;;;5072340;28;20548;-87
2024/01/29 05:58:12;;;;;;;0.10;0.10;;;;;;;;;;5055698;28;20036;-87
2024/01/29 06:00:39;;;;;;;0.40;0.40;;;;;;;;;;5038565;28;20055;-87
2024/01/29 06:03:05;;;;;;;0.10;0.10;;;;;;;;;;5055480;28;20392;-87
2024/01/29 06:05:31;;;;;;;0.10;0.10;;;;;;;;;;5022612;28;20045;-87
2024/01/29 06:07:57;;;;;;;0.10;0.10;;;;;;;;;;5022073;28;20036;-87
2024/01/29 06:10:23;;;;;;;0.10;0.10;;;;;;;;;;5055323;28;20044;-87
2024/01/29 06:12:49;;;;;;;0.10;0.10;;;;;;;;;;5038725;28;20040;-87
2024/01/29 06:15:15;;;;;;;0.10;0.10;;;;;;;;;;5038925;28;20037;-87
2024/01/29 06:17:41;;;;;;;0.20;0.20;;;;;;;;;;5038514;28;20045;-87
2024/01/29 06:20:07;;;;;;;0.20;0.20;;;;;;;;;;5055360;28;20066;-88
2024/01/29 06:22:34;;;;;;;0.20;0.20;;;;;;;;;;5055350;28;20040;-89
2024/01/29 06:25:00;;;;;;;0.10;0.10;;;;;;;;;;5038904;28;20045;-89
2024/01/29 06:27:26;;;;;;;0.10;0.10;;;;;;;;;;5038616;28;20062;-88
2024/01/29 06:29:52;;;;;;;0.10;0.10;;;;;;;;;;5038751;28;20040;-88
2024/01/29 06:32:18;;;;;;;0.10;0.10;;;;;;;;;;5022441;28;20036;-88
2024/01/29 06:34:45;;;;;;;0.10;0.10;;;;;;;;;;5055433;28;20045;-88
2024/01/29 06:37:11;;;;;;;0.10;0.10;;;;;;;;;;5038444;28;20040;-89
2024/01/29 06:39:37;;;;;;;0.10;0.10;;;;;;;;;;5038388;28;20052;-88
2024/01/29 06:42:04;;;;;;;0.10;0.10;;;;;;;;;;5054934;28;20040;-89
2024/01/29 06:44:30;;;;;;;0.10;0.10;;;;;;;;;;5038566;28;20474;-86
2024/01/29 06:46:56;;;;;;;0.10;0.10;;;;;;;;;;5054771;28;20137;-87
2024/01/29 06:49:26;;;;;;;0.10;0.10;;;;;;;;;;5054656;28;20029;-88
2024/01/29 06:51:52;;;;;;;0.10;0.10;;;;;;;;;;5021975;28;20041;-86
2024/01/29 06:54:18;;;;;;;0.20;0.20;;;;;;;;;;5021436;28;20040;-87
2024/01/29 06:56:44;;;;;;;0.10;0.10;;;;;;;;;;5038210;28;20040;-87
2024/01/29 06:59:11;;;;;;;0.10;0.10;;;;;;;;;;5021582;28;20063;-87
2024/01/29 07:01:37;;;;;;;0.28;0.28;;;;;;;;;;5021081;28;20057;-86
2024/01/29 07:04:03;;;;;;;0.10;0.10;;;;;;;;;;5021365;28;20051;-86
2024/01/29 07:06:30;;;;;;;0.10;0.10;;;;;;;;;;5037804;28;20040;-86
2024/01/29 07:08:56;;;;;;;0.10;0.10;;;;;;;;;;5037148;28;20041;-87
2024/01/29 07:11:22;;;;;;;0.10;0.10;;;;;;;;;;5021254;28;20490;-88
2024/01/29 07:13:49;;;;;;;0.10;0.10;;;;;;;;;;5021313;28;20127;-88
2024/01/29 07:16:15;;;;;;;0.10;0.10;;;;;;;;;;5037774;28;20048;-86
2024/01/29 07:18:41;;;;;;;0.10;0.10;;;;;;;;;;5054083;28;20045;-87
2024/01/29 07:21:10;;;;;;;0.10;0.10;;;;;;;;;;5053992;28;20093;-87
2024/01/29 07:23:36;;;;;;;0.10;0.10;;;;;;;;;;5021321;28;20040;-86
2024/01/29 07:26:03;;;;;;;0.10;0.10;;;;;;;;;;5037491;28;20085;-86
2024/01/29 07:28:29;;;;;;;0.10;0.10;;;;;;;;;;5054351;28;20037;-86
2024/01/29 07:30:55;;;;;;;0.17;0.17;;;;;;;;;;5054120;28;20041;-85
2024/01/29 07:33:22;;;;;;;0.10;0.10;;;;;;;;;;5054203;28;20041;-85
2024/01/29 07:35:50;;;;;;;0.10;0.10;;;;;;;;;;5037950;28;20127;-86
2024/01/29 07:38:17;;;;;;;0.10;0.10;;;;;;;;;;5037685;28;20091;-86
2024/01/29 07:40:43;;;;;;;0.10;0.10;;;;;;;;;;5021355;28;20047;-88
2024/01/29 07:43:10;;;;;;;0.10;0.10;;;;;;;;;;5054254;28;20098;-86
2024/01/29 07:45:36;;;;;;;0.17;0.17;;;;;;;;;;5053945;28;20040;-87
2024/01/29 07:48:04;;;;;;;0.10;0.10;;;;;;;;;;5070654;28;20042;-87
2024/01/29 07:50:31;;;;;;;0.20;0.20;;;;;;;;;;5021676;28;20074;-88
2024/01/29 07:52:57;;;;;;;0.10;0.10;;;;;;;;;;5054154;28;20094;-87
2024/01/29 07:55:23;;;;;;;0.30;0.30;;;;;;;;;;5070532;28;20080;-85
2024/01/29 07:57:49;;;;;;;0.10;0.10;;;;;;;;;;5053999;28;20047;-85
2024/01/29 08:00:15;;;;;;;0.10;0.10;;;;;;;;;;5020593;28;20059;-86
2024/01/29 08:02:41;;;;;;;0.10;0.10;;;;;;;;;;5054070;28;20055;-87
2024/01/29 08:05:07;;;;;;;0.10;0.10;;;;;;;;;;5037185;28;20044;-88
2024/01/29 08:07:33;;;;;;;0.20;0.20;;;;;;;;;;5053775;28;20041;-86
2024/01/29 08:10:01;;;;;;;0.30;0.30;;;;;;;;;;5053627;28;20110;-86
2024/01/29 08:12:27;;;;;;;0.10;0.10;;;;;;;;;;5021151;28;20044;-89
2024/01/29 08:14:54;;;;;;;0.10;0.10;;;;;;;;;;5021387;28;20047;-89
2024/01/29 08:17:20;;;;;;;0.10;0.10;;;;;;;;;;5038548;28;20514;-92
2024/01/29 08:19:46;;;;;;;0.10;0.10;;;;;;;;;;5054627;28;20036;-91
2024/01/29 08:22:12;;;;;;;0.10;0.10;;;;;;;;;;5024963;28;20483;-92
2024/01/29 08:24:42;;;;;;;0.20;0.20;;;;;;;;;;5042645;28;20049;-94
2024/01/29 08:27:08;;;;;;;0.10;0.10;;;;;;;;;;5028179;28;20029;-91
2024/01/29 08:29:34;;;;;;;0.10;0.10;;;;;;;;;;5024779;28;20199;-90
2024/01/29 08:32:00;;;;;;;0.10;0.10;;;;;;;;;;5029639;28;20043;-94
2024/01/29 08:34:29;;;;;;;0.10;0.10;;;;;;;;;;5035991;28;20082;-90
2024/01/29 08:36:56;;;;;;;0.10;0.10;;;;;;;;;;5060165;28;20068;-90
2024/01/29 08:39:22;;;;;;;0.10;0.10;;;;;;;;;;5026826;28;20072;-90
2024/01/29 08:41:48;;;;;;;0.10;0.10;;;;;;;;;;5058161;28;20495;-89
2024/01/29 08:44:14;;;;;;;0.10;0.10;;;;;;;;;;5077341;28;20043;-89
2024/01/29 08:46:40;;;;;;;0.20;0.20;;;;;;;;;;5077219;28;20075;-90
2024/01/29 08:49:06;;;;;;;0.10;0.10;;;;;;;;;;5024886;28;20384;-89
2024/01/29 08:51:33;;;;;;;0.10;0.10;;;;;;;;;;5024347;28;20131;-88
2024/01/29 08:53:59;;;;;;;0.10;0.10;;;;;;;;;;5024861;28;20047;-90
2024/01/29 08:56:25;;;;;;;0.10;0.10;;;;;;;;;;5058079;28;20076;-92
2024/01/29 08:58:51;;;;;;;0.10;0.10;;;;;;;;;;5041412;28;20123;-91
2024/01/29 09:01:17;;;;;;;0.10;0.10;;;;;;;;;;5040778;28;20068;-89
2024/01/29 09:03:44;;;;;;;0.10;0.10;;;;;;;;;;5057532;28;20094;-91
2024/01/29 09:06:10;;;;;;;0.10;0.10;;;;;;;;;;5057690;28;20036;-90
2024/01/29 09:08:36;;;;;;;0.10;0.10;;;;;;;;;;5057621;28;20036;-90
2024/01/29 09:11:03;;;;;;;0.20;0.20;;;;;;;;;;5041194;28;20098;-91
2024/01/29 09:13:29;;;;;;;0.10;0.10;;;;;;;;;;5057937;28;20078;-91
2024/01/29 09:15:55;;;;;;;0.10;0.10;;;;;;;;;;5057597;28;20044;-90
2024/01/29 09:18:21;;;;;;;1.02;0.82;;;;;;;;;;5057449;28;20036;-90
2024/01/29 09:20:47;;;;;;;0.10;0.10;;;;;;;;;;5057954;28;20047;-88
2024/01/29 09:23:13;;;;;;;0.10;0.10;;;;;;;;;;5056658;28;20041;-88
2024/01/29 09:25:40;;;;;;;0.20;0.20;;;;;;;;;;5039851;28;20037;-88
2024/01/29 09:28:06;;;;;;;0.10;0.10;;;;;;;;;;5055946;28;20113;-88
2024/01/29 09:30:32;;;;;;;0.10;0.10;;;;;;;;;;5055996;28;20043;-89
2024/01/29 09:32:58;;;;;;;0.10;0.10;;;;;;;;;;5054357;28;20045;-88
2024/01/29 09:35:24;;;;;;;0.10;0.10;;;;;;;;;;5022676;28;20044;-90
2024/01/29 09:37:50;;;;;;;0.20;0.20;;;;;;;;;;5030395;28;20044;-91
2024/01/29 09:40:17;;;;;;;0.20;0.20;;;;;;;;;;5076343;28;20305;-89
2024/01/29 09:42:43;;;;;;;0.10;0.10;;;;;;;;;;5075674;28;20036;-89
2024/01/29 09:45:11;;;;;;;0.10;0.10;;;;;;;;;;5042582;28;20036;-89
2024/01/29 09:47:37;;;;;;;0.10;0.10;;;;;;;;;;5045946;28;20425;-88
2024/01/29 09:50:05;;;;;;;0.15;0.15;;;;;;;;;;5052603;28;20042;-90
2024/01/29 09:52:33;;;;;;;0.10;0.10;;;;;;;;;;5080445;28;20044;-88
2024/01/29 09:54:59;;;;;;;0.10;0.10;;;;;;;;;;5050653;28;20118;-90
2024/01/29 09:57:25;;;;;;;0.10;0.10;;;;;;;;;;5083514;28;20135;-91
2024/01/29 09:59:51;;;;;;;0.10;0.10;;;;;;;;;;5077558;28;20385;-89
2024/01/29 10:02:18;;;;;;;0.20;0.20;;;;;;;;;;5042351;28;20052;-89
2024/01/29 10:04:44;;;;;;;0.15;0.15;;;;;;;;;;5058962;28;20126;-89
2024/01/29 10:07:10;;;;;;;0.10;0.10;;;;;;;;;;5059062;28;20040;-90
2024/01/29 10:09:36;;;;;;;0.20;0.20;;;;;;;;;;5058734;28;20404;-90
2024/01/29 10:12:03;;;;;;;2.60;2.38;;;;;;;;;;5042286;28;20040;-90
2024/01/29 10:14:30;;;;;;;0.10;0.10;;;;;;;;;;5075253;28;20044;-90
2024/01/29 10:16:56;;;;;;;0.20;0.20;;;;;;;;;;5042604;28;20256;-89
2024/01/29 10:19:22;;;;;;;0.10;0.10;;;;;;;;;;5075019;28;20426;-89
2024/01/29 10:21:48;;;;;;;0.68;0.68;;;;;;;;;;5075502;28;20032;-89
2024/01/29 10:24:17;;;;;;;0.10;0.10;;;;;;;;;;5046608;28;20033;-91
2024/01/29 10:26:43;;;;;;;0.10;0.10;;;;;;;;;;5052961;28;20032;-91
2024/01/29 10:29:10;;;;;;;0.20;0.20;;;;;;;;;;5073062;28;20036;-93
2024/01/29 10:34:51;;;;;;;0.10;0.10;;;;;;;;;;5110860;22;20068;-93
2024/01/29 10:37:17;;;;;;;0.10;0.10;;;;;;;;;;4984112;28;20047;-93
2024/01/29 10:39:44;;;;;;;0.10;0.10;;;;;;;;;;4985261;28;20076;-96
2024/01/29 10:42:20;;;;;;;0.10;0.10;;;;;;;;;;4985825;28;20174;-93
2024/01/29 10:44:46;;;;;;;0.10;0.10;;;;;;;;;;4997239;28;20045;-92
2024/01/29 10:47:18;;;;;;;0.35;0.35;;;;;;;;;;4998859;28;20033;-90
2024/01/29 10:49:44;;;;;;;0.10;0.10;;;;;;;;;;4998679;28;20066;-92
2024/01/29 10:52:11;;;;;;;0.10;0.10;;;;;;;;;;4996287;28;20092;-92
2024/01/29 10:54:37;;;;;;;0.20;0.20;;;;;;;;;;4983161;28;20052;-92
2024/01/29 10:57:03;;;;;;;0.20;0.20;;;;;;;;;;4999300;28;20551;-90
2024/01/29 10:59:29;;;;;;;0.20;0.20;;;;;;;;;;4999025;28;20049;-91
2024/01/29 11:01:56;;;;;;;0.10;0.10;;;;;;;;;;4998620;28;20102;-90
2024/01/29 11:04:23;;;;;;;0.20;0.20;;;;;;;;;;4983515;28;20053;-91
2024/01/29 11:06:51;;;;;;;0.52;0.52;;;;;;;;;;4985393;28;20042;-91
2024/01/29 11:09:18;;;;;;;0.20;0.20;;;;;;;;;;4992935;28;20072;-92
2024/01/29 11:11:46;;;;;;;0.10;0.10;;;;;;;;;;5002524;28;20047;-91
2024/01/29 11:14:12;;;;;;;0.10;0.10;;;;;;;;;;5002707;28;20484;-90
2024/01/29 11:16:39;;;;;;;0.20;0.20;;;;;;;;;;5001993;28;20048;-90
2024/01/29 11:19:05;;;;;;;0.10;0.10;;;;;;;;;;5002022;28;20154;-90
2024/01/29 11:21:31;;;;;;;0.10;0.10;;;;;;;;;;5018107;28;20041;-90
2024/01/29 11:23:58;;;;;;;0.10;0.10;;;;;;;;;;5018546;28;20040;-91
2024/01/29 11:26:28;;;;;;;0.10;0.10;;;;;;;;;;5002216;28;20037;-91
2024/01/29 11:28:55;;;;;;;0.10;0.10;;;;;;;;;;5002025;28;20072;-90
2024/01/29 11:31:21;;;;;;;0.10;0.10;;;;;;;;;;5002192;28;20077;-91
2024/01/29 11:33:47;;;;;;;0.20;0.20;;;;;;;;;;5001601;28;20056;-91
2024/01/29 11:36:13;;;;;;;0.10;0.10;;;;;;;;;;5018207;28;20427;-89
2024/01/29 11:38:39;;;;;;;0.10;0.10;;;;;;;;;;5001340;28;20072;-90
2024/01/29 11:41:06;;;;;;;0.10;0.10;;;;;;;;;;5011356;28;20041;-91
2024/01/29 11:43:35;;;;;;;0.17;0.17;;;;;;;;;;5010271;28;20090;-93
2024/01/29 11:46:01;;;;;;;0.10;0.10;;;;;;;;;;5018268;28;20163;-90
2024/01/29 11:48:27;;;;;;;0.10;0.10;;;;;;;;;;5001380;28;20455;-89
2024/01/29 11:50:54;;;;;;;0.20;0.20;;;;;;;;;;5001362;28;20090;-89
2024/01/29 11:53:20;;;;;;;0.10;0.10;;;;;;;;;;5001862;28;20530;-89
2024/01/29 11:55:48;;;;;;;0.10;0.10;;;;;;;;;;5004427;28;20049;-89
2024/01/29 11:58:14;;;;;;;0.10;0.10;;;;;;;;;;5006851;28;20108;-91
2024/01/29 12:00:41;;;;;;;0.10;0.10;;;;;;;;;;4993620;28;20053;-92
2024/01/29 12:03:10;;;;;;;0.10;0.10;;;;;;;;;;4987718;28;20045;-93
2024/01/29 12:05:36;;;;;;;0.10;0.10;;;;;;;;;;4998831;28;20037;-92
2024/01/29 12:08:02;;;;;;;0.10;0.10;;;;;;;;;;5006657;28;20037;-93
2024/01/29 12:10:29;;;;;;;0.10;0.10;;;;;;;;;;5007544;28;20110;-92
2024/01/29 12:12:55;;;;;;;0.10;0.10;;;;;;;;;;5010598;28;20041;-92
2024/01/29 12:15:21;;;;;;;0.10;0.10;;;;;;;;;;5106970;22;20056;-92
2024/01/29 12:17:47;;;;;;;0.10;0.10;;;;;;;;;;5058557;28;20070;-90
2024/01/29 12:20:13;;;;;;;0.15;0.15;;;;;;;;;;5060691;28;20119;-91
2024/01/29 12:22:39;;;;;;;0.10;0.10;;;;;;;;;;5062297;28;20041;-88
2024/01/29 12:25:08;;;;;;;0.10;0.10;;;;;;;;;;5064772;28;20036;-88
2024/01/29 12:27:34;;;;;;;0.10;0.10;;;;;;;;;;5062141;28;20040;-90
2024/01/29 12:30:04;;;;;;;0.10;0.10;;;;;;;;;;5061371;28;20043;-90
2024/01/29 12:32:35;;;;;;;0.20;0.20;;;;;;;;;;5057658;28;20201;-90
2024/01/29 12:35:01;;;;;;;0.10;0.10;;;;;;;;;;5057547;28;20094;-89
2024/01/29 12:37:27;;;;;;;0.10;0.10;;;;;;;;;;5040310;28;20081;-87
2024/01/29 12:39:54;;;;;;;0.10;0.10;;;;;;;;;;5056751;28;20048;-88
2024/01/29 12:42:20;;;;;;;0.20;0.20;;;;;;;;;;5056698;28;20080;-88
2024/01/29 12:44:48;;;;;;;0.10;0.10;;;;;;;;;;5040009;28;20032;-88
2024/01/29 12:47:18;;;;;;;0.20;0.20;;;;;;;;;;5056713;28;20038;-88
2024/01/29 12:49:45;;;;;;;0.10;0.10;;;;;;;;;;5056509;28;20040;-88
2024/01/29 12:52:11;;;;;;;0.10;0.10;;;;;;;;;;5056367;28;20132;-89
2024/01/29 12:54:38;;;;;;;0.20;0.20;;;;;;;;;;5039847;28;20103;-88
2024/01/29 12:57:06;;;;;;;0.10;0.10;;;;;;;;;;5056684;28;20395;-88
2024/01/29 12:59:32;;;;;;;0.10;0.10;;;;;;;;;;5056538;28;20506;-88
2024/01/29 13:01:58;;;;;;;0.10;0.10;;;;;;;;;;5056013;28;20063;-87
2024/01/29 13:04:24;;;;;;;0.10;0.10;;;;;;;;;;5040191;28;20037;-88
2024/01/29 13:06:50;;;;;;;0.10;0.10;;;;;;;;;;5056471;28;20043;-93
2024/01/29 13:09:18;;;;;;;0.17;0.17;;;;;;;;;;5057057;28;20045;-91
2024/01/29 13:11:47;;;;;;;0.10;0.10;;;;;;;;;;5057121;28;20044;-91
2024/01/29 13:14:13;;;;;;;0.10;0.10;;;;;;;;;;5057062;28;20055;-91
2024/01/29 13:16:39;;;;;;;0.10;0.10;;;;;;;;;;5056686;28;20087;-92
2024/01/29 13:19:06;;;;;;;0.10;0.10;;;;;;;;;;5056822;28;20041;-91
2024/01/29 13:21:33;;;;;;;0.10;0.10;;;;;;;;;;5057006;28;20051;-91
2024/01/29 13:24:00;;;;;;;0.10;0.10;;;;;;;;;;5057140;28;20071;-91
2024/01/29 13:26:29;;;;;;;0.10;0.10;;;;;;;;;;5057429;28;20076;-91
2024/01/29 13:28:55;;;;;;;0.10;0.10;;;;;;;;;;5057158;28;20397;-91
2024/01/29 13:31:22;;;;;;;0.10;0.10;;;;;;;;;;5040905;28;20475;-91
2024/01/29 13:33:48;;;;;;;0.10;0.10;;;;;;;;;;5056769;28;20040;-91
2024/01/29 13:36:15;;;;;;;0.20;0.20;;;;;;;;;;5040449;28;20036;-89
2024/01/29 13:38:42;;;;;;;0.10;0.10;;;;;;;;;;5040426;28;20432;-91
2024/01/29 13:41:11;;;;;;;0.15;0.15;;;;;;;;;;5056414;28;20040;-91
2024/01/29 13:43:37;;;;;;;0.10;0.10;;;;;;;;;;5056311;28;20094;-91
2024/01/29 13:46:03;;;;;;;0.10;0.10;;;;;;;;;;5056889;28;20044;-91
2024/01/29 13:48:30;;;;;;;0.10;0.10;;;;;;;;;;5056689;28;20036;-91
2024/01/29 13:50:56;;;;;;;0.10;0.10;;;;;;;;;;5040210;28;20500;-92
2024/01/29 13:53:22;;;;;;;0.20;0.20;;;;;;;;;;5056341;28;20209;-91
2024/01/29 13:55:49;;;;;;;0.10;0.10;;;;;;;;;;5056032;28;20131;-90
2024/01/29 13:58:15;;;;;;;0.10;0.10;;;;;;;;;;5056158;28;20051;-90
2024/01/29 14:00:41;;;;;;;0.10;0.10;;;;;;;;;;5057369;28;20051;-92
2024/01/29 14:03:07;;;;;;;0.10;0.10;;;;;;;;;;5039701;28;20046;-94
2024/01/29 14:05:34;;;;;;;0.20;0.20;;;;;;;;;;5056414;28;20075;-91
2024/01/29 14:08:01;;;;;;;0.10;0.10;;;;;;;;;;5055292;28;20219;-90
2024/01/29 14:10:29;;;;;;;0.10;0.10;;;;;;;;;;5055023;28;20086;-87
2024/01/29 14:12:56;;;;;;;0.10;0.10;;;;;;;;;;5055164;28;20059;-87
2024/01/29 14:15:22;;;;;;;0.20;0.20;;;;;;;;;;5054772;28;20053;-87
2024/01/29 14:17:48;;;;;;;0.10;0.10;;;;;;;;;;5054409;28;20373;-89
2024/01/29 14:20:14;;;;;;;0.10;0.10;;;;;;;;;;5054562;28;20044;-89
2024/01/29 14:22:40;;;;;;;0.10;0.10;;;;;;;;;;5054954;28;20637;-88
2024/01/29 14:25:06;;;;;;;0.10;0.10;;;;;;;;;;5055148;28;20388;-89
2024/01/29 14:27:32;;;;;;;0.10;0.10;;;;;;;;;;5054896;28;20032;-90
2024/01/29 14:29:59;;;;;;;0.10;0.10;;;;;;;;;;5038142;28;20116;-87
2024/01/29 14:32:27;;;;;;;0.10;0.10;;;;;;;;;;5055127;28;20041;-90
2024/01/29 14:34:54;;;;;;;0.10;0.10;;;;;;;;;;5054934;28;20287;-89
2024/01/29 14:37:20;;;;;;;0.10;0.10;;;;;;;;;;5055097;28;20170;-90
2024/01/29 14:39:46;;;;;;;0.10;0.10;;;;;;;;;;5038279;28;20062;-87
2024/01/29 14:42:12;;;;;;;0.10;0.10;;;;;;;;;;5054412;28;20040;-87